createdAt,value
2022-12-11T00:03:27.315Z,97379.09
2022-12-11T00:07:29.476Z,97368.78
2022-12-11T00:11:31.565Z,97372.13
2022-12-11T00:15:33.608Z,97378.00
2022-12-11T00:19:35.673Z,97372.81
2022-12-11T00:23:38.268Z,97370.19
2022-12-11T00:27:40.351Z,97372.69
2022-12-11T00:31:42.740Z,97375.25
2022-12-11T00:35:48.061Z,97373.50
2022-12-11T00:39:50.074Z,97369.09
2022-12-11T00:43:52.126Z,97366.44
2022-12-11T00:47:55.434Z,97373.31
2022-12-11T00:51:57.522Z,97376.75
2022-12-11T00:55:59.535Z,97373.31
2022-12-11T01:00:01.640Z,97372.34
2022-12-11T01:04:03.738Z,97365.44
2022-12-11T01:08:06.315Z,97373.97
2022-12-11T01:12:08.385Z,97379.16
2022-12-11T01:16:13.124Z,97377.44
2022-12-11T01:20:15.969Z,97380.78
2022-12-11T01:24:18.132Z,97378.22
2022-12-11T01:28:20.168Z,97373.91
2022-12-11T01:32:22.524Z,97368.78
2022-12-11T01:36:24.960Z,97373.09
2022-12-11T01:40:27.275Z,97373.09
2022-12-11T01:44:29.264Z,97378.25
2022-12-11T01:48:32.950Z,97373.16
2022-12-11T01:52:36.469Z,97376.56
2022-12-11T01:56:42.152Z,97375.81
2022-12-11T02:00:44.480Z,97373.22
2022-12-11T02:04:47.347Z,97378.34
2022-12-11T02:08:49.412Z,97366.31
2022-12-11T02:13:01.880Z,97376.69
2022-12-11T02:17:15.995Z,97365.59
2022-12-11T02:21:42.485Z,97361.31
2022-12-11T02:26:32.626Z,97361.22
2022-12-11T02:30:37.068Z,97363.75
2022-12-11T02:34:49.265Z,97374.16
2022-12-11T02:38:54.555Z,97375.19
2022-12-11T02:43:01.130Z,97372.69
2022-12-11T02:47:05.595Z,97375.06
2022-12-11T02:51:10.259Z,97376.66
2022-12-11T02:55:15.620Z,97377.47
2022-12-11T02:59:26.172Z,97379.88
2022-12-11T03:03:29.854Z,97379.84
2022-12-11T03:07:36.432Z,97361.78
2022-12-11T03:11:38.424Z,97366.16
2022-12-11T03:15:59.592Z,97364.38
2022-12-11T03:20:01.554Z,97361.69
2022-12-11T03:24:21.184Z,97371.13
2022-12-11T03:28:30.415Z,97355.53
2022-12-11T03:32:43.113Z,97352.03
2022-12-11T03:36:49.339Z,97362.34
2022-12-11T03:40:57.467Z,97360.72
2022-12-11T03:45:01.868Z,97363.44
2022-12-11T03:49:17.291Z,97355.75
2022-12-11T03:53:20.570Z,97357.53
2022-12-11T03:57:25.811Z,97359.19
2022-12-11T04:01:27.955Z,97359.19
2022-12-11T04:05:29.955Z,97359.16
2022-12-11T04:09:32.163Z,97346.19
2022-12-11T04:13:34.155Z,97352.03
2022-12-11T04:17:55.522Z,97353.69
2022-12-11T04:22:16.277Z,97362.22
2022-12-11T04:26:20.173Z,97357.78
2022-12-11T04:30:29.344Z,97362.97
2022-12-11T04:34:34.536Z,97362.22
2022-12-11T04:38:36.913Z,97344.13
2022-12-11T04:42:38.980Z,97342.69
2022-12-11T04:46:41.064Z,97342.63
2022-12-11T04:50:43.079Z,97346.88
2022-12-11T04:54:45.314Z,97341.63
2022-12-11T04:58:48.323Z,97342.41
2022-12-11T05:02:50.446Z,97346.72
2022-12-11T05:06:52.616Z,97346.72
2022-12-11T05:10:59.502Z,97333.00
2022-12-11T05:15:01.570Z,97327.88
2022-12-11T05:19:03.568Z,97321.84
2022-12-11T05:23:05.629Z,97332.06
2022-12-11T05:27:07.641Z,97327.75
2022-12-11T05:31:15.786Z,97323.59
2022-12-11T05:35:18.083Z,97323.56
2022-12-11T05:39:20.462Z,97326.09
2022-12-11T05:43:22.485Z,97328.69
2022-12-11T05:47:25.497Z,97325.19
2022-12-11T05:51:28.483Z,97322.59
2022-12-11T05:55:33.885Z,97332.81
2022-12-11T05:59:35.900Z,97331.06
2022-12-11T06:03:38.325Z,97324.25
2022-12-11T06:07:40.370Z,97322.59
2022-12-11T06:11:42.663Z,97320.03
2022-12-11T06:15:44.719Z,97308.91
2022-12-11T06:19:46.767Z,97303.81
2022-12-11T06:23:50.533Z,97303.88
2022-12-11T06:27:52.549Z,97308.13
2022-12-11T06:31:54.659Z,97300.41
2022-12-11T06:35:57.205Z,97306.44
2022-12-11T06:39:59.214Z,97298.72
2022-12-11T06:44:01.246Z,97298.72
2022-12-11T06:48:03.638Z,97305.75
2022-12-11T06:52:06.117Z,97306.94
2022-12-11T06:56:11.029Z,97312.09
2022-12-11T07:00:13.949Z,97305.06
2022-12-11T07:04:16.004Z,97314.50
2022-12-11T07:08:18.169Z,97317.38
2022-12-11T07:12:20.256Z,97326.03
2022-12-11T07:16:22.397Z,97323.34
2022-12-11T07:20:24.554Z,97333.53
2022-12-11T07:24:26.720Z,97334.50
2022-12-11T07:28:28.713Z,97328.72
2022-12-11T07:32:30.806Z,97331.53
2022-12-11T07:36:34.344Z,97329.88
2022-12-11T07:40:36.785Z,97323.06
2022-12-11T07:44:38.811Z,97327.38
2022-12-11T07:48:46.307Z,97322.28
2022-12-11T07:52:51.061Z,97329.13
2022-12-11T07:56:54.051Z,97331.69
2022-12-11T08:00:56.305Z,97340.13
2022-12-11T08:04:58.344Z,97342.66
2022-12-11T08:09:02.030Z,97346.09
2022-12-11T08:13:04.128Z,97352.06
2022-12-11T08:17:06.196Z,97343.41
2022-12-11T08:21:10.067Z,97345.09
2022-12-11T08:25:12.529Z,97353.66
2022-12-11T08:29:15.045Z,97346.69
2022-12-11T08:33:17.087Z,97341.41
2022-12-11T08:37:19.187Z,97347.44
2022-12-11T08:41:30.062Z,97327.66
2022-12-11T08:45:32.730Z,97321.72
2022-12-11T08:49:36.381Z,97332.66
2022-12-11T08:53:39.511Z,97334.84
2022-12-11T08:57:41.539Z,97323.50
2022-12-11T09:01:43.731Z,97329.69
2022-12-11T09:05:45.747Z,97335.66
2022-12-11T09:09:47.897Z,97327.97
2022-12-11T09:13:50.617Z,97327.88
2022-12-11T09:17:52.833Z,97327.97
2022-12-11T09:21:54.914Z,97334.16
2022-12-11T09:25:57.155Z,97327.28
2022-12-11T09:29:59.169Z,97343.75
2022-12-11T09:34:07.609Z,97335.00
2022-12-11T09:38:10.253Z,97339.22
2022-12-11T09:42:31.176Z,97343.50
2022-12-11T09:46:34.826Z,97339.16
2022-12-11T09:50:37.037Z,97334.81
2022-12-11T09:54:49.297Z,97334.09
2022-12-11T09:59:32.057Z,97325.56
2022-12-11T10:04:02.548Z,97323.97
2022-12-11T10:08:13.658Z,97325.78
2022-12-11T10:12:41.905Z,97318.03
2022-12-11T10:16:47.055Z,97317.19
2022-12-11T10:20:52.677Z,97316.47
2022-12-11T10:25:10.529Z,97316.56
2022-12-11T10:29:15.651Z,97309.78
2022-12-11T10:33:27.300Z,97315.00
2022-12-11T10:37:29.324Z,97316.56
2022-12-11T10:41:38.822Z,97310.31
2022-12-11T10:45:50.978Z,97302.53
2022-12-11T10:49:58.985Z,97310.06
2022-12-11T10:54:10.102Z,97300.38
2022-12-11T10:58:19.261Z,97296.81
2022-12-11T11:02:41.536Z,97305.38
2022-12-11T11:06:43.865Z,97311.31
2022-12-11T11:11:00.050Z,97293.97
2022-12-11T11:15:05.287Z,97295.53
2022-12-11T11:19:14.689Z,97283.44
2022-12-11T11:23:19.661Z,97291.03
2022-12-11T11:27:24.611Z,97283.22
2022-12-11T11:31:35.406Z,97282.31
2022-12-11T11:35:39.122Z,97271.19
2022-12-11T11:39:48.006Z,97270.34
2022-12-11T11:43:57.752Z,97264.19
2022-12-11T11:48:52.115Z,97264.97
2022-12-11T11:53:13.861Z,97257.16
2022-12-11T11:57:27.008Z,97255.38
2022-12-11T12:01:30.117Z,97250.13
2022-12-11T12:05:55.367Z,97243.38
2022-12-11T12:10:15.100Z,97245.25
2022-12-11T12:19:32.604Z,97238.16
2022-12-11T12:23:51.195Z,97238.16
2022-12-11T12:28:30.847Z,97239.91
2022-12-11T12:33:03.264Z,97240.72
2022-12-11T12:37:18.862Z,97247.44
2022-12-11T12:41:32.321Z,97234.63
2022-12-11T12:45:41.976Z,97236.09
2022-12-11T12:49:51.001Z,97232.88
2022-12-11T12:53:57.183Z,97233.53
2022-12-11T12:58:01.871Z,97230.56
2022-12-11T13:02:05.099Z,97233.88
2022-12-11T13:06:10.958Z,97230.34
2022-12-11T13:10:36.141Z,97232.06
2022-12-11T13:14:38.260Z,97230.31
2022-12-11T13:18:42.113Z,97230.34
2022-12-11T13:22:54.815Z,97236.44
2022-12-11T13:27:07.677Z,97228.50
2022-12-11T13:31:15.847Z,97236.97
2022-12-11T13:35:18.310Z,97237.66
2022-12-11T13:39:28.002Z,97241.97
2022-12-11T13:43:32.406Z,97242.97
2022-12-11T13:47:36.179Z,97254.25
2022-12-11T13:51:38.926Z,97250.03
2022-12-11T13:55:41.010Z,97250.91
2022-12-11T13:59:52.867Z,97242.31
2022-12-11T14:03:56.174Z,97256.16
2022-12-11T14:08:02.785Z,97249.34
2022-12-11T14:12:05.283Z,97245.84
2022-12-11T14:16:07.726Z,97238.06
2022-12-11T14:20:19.865Z,97247.47
2022-12-11T14:24:21.943Z,97241.50
2022-12-11T14:28:27.583Z,97238.88
2022-12-11T14:32:38.306Z,97248.38
2022-12-11T14:36:41.914Z,97246.81
2022-12-11T14:40:49.519Z,97255.38
2022-12-11T14:45:01.184Z,97268.25
2022-12-11T14:49:07.894Z,97267.38
2022-12-11T14:53:24.263Z,97259.66
2022-12-11T14:57:29.166Z,97268.28
2022-12-11T15:01:33.564Z,97270.91
2022-12-11T15:05:40.819Z,97270.97
2022-12-11T15:09:46.630Z,97264.16
2022-12-11T15:14:00.556Z,97268.53
2022-12-11T15:18:07.871Z,97262.53
2022-12-11T15:22:16.441Z,97276.22
2022-12-11T15:26:34.354Z,97272.78
2022-12-11T15:30:36.539Z,97272.78
2022-12-11T15:34:52.694Z,97277.09
2022-12-11T15:38:54.953Z,97283.16
2022-12-11T15:42:57.835Z,97285.81
2022-12-11T15:46:59.899Z,97291.72
2022-12-11T15:51:03.647Z,97285.81
2022-12-11T15:55:06.007Z,97290.19
2022-12-11T15:59:09.849Z,97286.75
2022-12-11T16:03:18.317Z,97303.06
2022-12-11T16:07:25.414Z,97294.47
2022-12-11T16:11:27.412Z,97297.84
2022-12-11T16:15:29.985Z,97293.47
2022-12-11T16:19:32.134Z,97290.97
2022-12-11T16:23:34.193Z,97290.09
2022-12-11T16:27:36.385Z,97288.31
2022-12-11T16:31:38.405Z,97290.81
2022-12-11T16:35:41.926Z,97290.75
2022-12-11T16:39:45.883Z,97293.41
2022-12-11T16:43:47.928Z,97281.38
2022-12-11T16:47:50.009Z,97280.50
2022-12-11T16:51:52.028Z,97284.75
2022-12-11T16:55:54.069Z,97293.28
2022-12-11T16:59:56.118Z,97288.16
2022-12-11T17:03:59.232Z,97285.59
2022-12-11T17:08:01.498Z,97283.94
2022-12-11T17:12:04.603Z,97281.44
2022-12-11T17:16:09.232Z,97279.78
2022-12-11T17:20:11.678Z,97272.03
2022-12-11T17:24:13.687Z,97263.44
2022-12-11T17:28:15.760Z,97261.75
2022-12-11T17:32:18.446Z,97260.91
2022-12-11T17:36:22.093Z,97263.47
2022-12-11T17:40:24.217Z,97263.41
2022-12-11T17:44:26.704Z,97261.81
2022-12-11T17:48:28.890Z,97261.09
2022-12-11T17:52:34.943Z,97262.88
2022-12-11T17:56:38.466Z,97268.97
2022-12-11T18:00:42.429Z,97258.66
2022-12-11T18:04:44.495Z,97262.16
2022-12-11T18:08:46.602Z,97249.25
2022-12-11T18:12:48.611Z,97263.81
2022-12-11T18:16:52.086Z,97260.34
2022-12-11T18:20:54.142Z,97259.56
2022-12-11T18:24:59.347Z,97260.50
2022-12-11T18:29:01.955Z,97253.56
2022-12-11T18:33:04.930Z,97258.72
2022-12-11T18:37:07.240Z,97258.66
2022-12-11T18:41:11.999Z,97264.66
2022-12-11T18:45:15.365Z,97260.44
2022-12-11T18:49:17.398Z,97265.66
2022-12-11T18:53:19.598Z,97265.72
2022-12-11T18:57:21.709Z,97263.16
2022-12-11T19:01:26.732Z,97260.38
2022-12-11T19:05:29.387Z,97265.50
2022-12-11T19:09:35.416Z,97262.78
2022-12-11T19:13:40.031Z,97268.03
2022-12-11T19:17:43.198Z,97264.59
2022-12-11T19:21:46.508Z,97263.03
2022-12-11T19:25:48.985Z,97262.16
2022-12-11T19:29:51.039Z,97262.16
2022-12-11T19:33:53.485Z,97257.00
2022-12-11T19:37:55.694Z,97273.25
2022-12-11T19:41:57.810Z,97268.09
2022-12-11T19:46:04.164Z,97269.75
2022-12-11T19:50:06.760Z,97268.91
2022-12-11T19:54:13.003Z,97267.16
2022-12-11T19:58:15.512Z,97260.28
2022-12-11T20:02:17.739Z,97265.44
2022-12-11T20:06:19.898Z,97262.78
2022-12-11T20:10:21.929Z,97265.25
2022-12-11T20:14:26.265Z,97267.81
2022-12-11T20:18:28.249Z,97263.69
2022-12-11T20:22:30.324Z,97266.25
2022-12-11T20:26:32.456Z,97265.31
2022-12-11T20:30:34.649Z,97261.81
2022-12-11T20:34:36.912Z,97254.84
2022-12-11T20:38:39.717Z,97255.66
2022-12-11T20:42:42.046Z,97252.25
2022-12-11T20:46:44.098Z,97248.06
2022-12-11T20:50:46.225Z,97253.22
2022-12-11T20:54:48.249Z,97251.72
2022-12-11T20:58:50.394Z,97249.97
2022-12-11T21:02:52.454Z,97262.88
2022-12-11T21:06:57.883Z,97261.25
2022-12-11T21:10:59.993Z,97265.59
2022-12-11T21:15:02.273Z,97251.00
2022-12-11T21:19:05.020Z,97252.75
2022-12-11T21:23:07.208Z,97256.25
2022-12-11T21:27:09.399Z,97251.13
2022-12-11T21:31:14.314Z,97246.75
2022-12-11T21:35:16.620Z,97242.53
2022-12-11T21:39:18.647Z,97243.66
2022-12-11T21:43:21.181Z,97243.84
2022-12-11T21:47:24.524Z,97255.72
2022-12-11T21:51:35.729Z,97249.53
2022-12-11T21:55:41.556Z,97253.66
2022-12-11T21:59:43.560Z,97253.63
2022-12-11T22:03:45.789Z,97257.00
2022-12-11T22:07:48.173Z,97264.75
2022-12-11T22:11:53.780Z,97253.63
2022-12-11T22:16:00.043Z,97262.22
2022-12-11T22:20:02.160Z,97256.31
2022-12-11T22:24:04.894Z,97252.91
2022-12-11T22:28:07.014Z,97264.09
2022-12-11T22:32:09.104Z,97266.56
2022-12-11T22:36:11.864Z,97262.28
2022-12-11T22:40:14.538Z,97269.03
2022-12-11T22:44:20.002Z,97274.19
2022-12-11T22:48:22.039Z,97269.09
2022-12-11T22:52:24.085Z,97270.03
2022-12-11T22:56:26.159Z,97277.75
2022-12-11T23:00:28.240Z,97272.53
2022-12-11T23:04:30.636Z,97275.13
2022-12-11T23:08:33.138Z,97265.66
2022-12-11T23:12:36.227Z,97272.53
2022-12-11T23:16:38.350Z,97274.38
2022-12-11T23:20:40.395Z,97274.44
2022-12-11T23:24:42.443Z,97281.38
2022-12-11T23:28:45.421Z,97279.72
2022-12-11T23:32:47.433Z,97279.84
2022-12-11T23:36:49.477Z,97276.69
2022-12-11T23:40:51.861Z,97279.97
2022-12-11T23:44:53.866Z,97284.06
2022-12-11T23:48:56.009Z,97286.59
2022-12-11T23:52:58.012Z,97286.63
2022-12-11T23:56:59.977Z,97286.66
